Terminal Aerodrome Forecast
Issued by NWS Upton, NY

Home | Current Version | Previous Version | Text Only | Print | Product List | Glossary On
Versions: 1 2 3 4 5 6 7 8 9 10 11 12 13 14 15 16 17 18 19 20 21 22 23 24 25 26 27 28
000
FTUS41 KOKX 222000 AAC
TAFJFK
TAF AMD
KJFK 222032Z 2221/2324 12012KT P6SM SCT025 BKN035
      TEMPO 2221/2222 BKN025
     FM230200 09010KT P6SM BKN020 OVC035
     FM231400 06008KT P6SM BKN030 OVC050
     FM231600 07010KT P6SM SCT030 BKN050=

USA.gov is the U.S. government's official web portal to all federal, state and local government web resources and services.